Snowmass Village, Colorado
Current Conditions -  °F | °C
As of 8:53 AM on Wednesday 28 Jan 2015 (Local Time) from KASE Reporting Station
Broken Clouds Broken Clouds  
Wind Chill: 31°   Ceiling: 7500
Heat Index: 31°   Visibility: 10mi
Dew Point: 22°   Wind: 3mph
Humidity: 69%   Direction: NA
Pressure: 30.26"   Gusts: NA
Location:  39.21°N, 106.94°W
Report Text: KASE 281553Z VRB03KT 10SM BKN075 M01/M06 A3026 RMK AO2 SLP234 T10061056
Loading
Personal Weather Stations






























Interactive Weather Map New forecast layout! Learn more

10-Day Weather Forecast

Advertisements
Track Severe Weather on mobile